sensor_id;sensor_type;location;lat;lon;timestamp;P1;durP1;ratioP1;P2;durP2;ratioP2
58468;SDS011;44257;44.804;10.220;2023-07-02T00:01:37;7.05;;;5.00;;
58468;SDS011;44257;44.804;10.220;2023-07-02T00:04:03;10.10;;;5.93;;
58468;SDS011;44257;44.804;10.220;2023-07-02T00:06:29;7.38;;;4.45;;
58468;SDS011;44257;44.804;10.220;2023-07-02T00:08:57;8.57;;;5.07;;
58468;SDS011;44257;44.804;10.220;2023-07-02T00:11:23;8.02;;;5.68;;
58468;SDS011;44257;44.804;10.220;2023-07-02T00:13:49;7.00;;;4.78;;
58468;SDS011;44257;44.804;10.220;2023-07-02T00:16:15;6.68;;;4.80;;
58468;SDS011;44257;44.804;10.220;2023-07-02T00:18:40;6.70;;;4.90;;
58468;SDS011;44257;44.804;10.220;2023-07-02T00:21:06;7.97;;;4.90;;
58468;SDS011;44257;44.804;10.220;2023-07-02T00:23:32;8.90;;;4.93;;
58468;SDS011;44257;44.804;10.220;2023-07-02T00:25:58;8.63;;;5.03;;
58468;SDS011;44257;44.804;10.220;2023-07-02T00:28:24;6.75;;;4.75;;
58468;SDS011;44257;44.804;10.220;2023-07-02T00:30:50;6.95;;;4.90;;
58468;SDS011;44257;44.804;10.220;2023-07-02T00:33:16;7.70;;;4.90;;
58468;SDS011;44257;44.804;10.220;2023-07-02T00:35:41;7.95;;;5.03;;
58468;SDS011;44257;44.804;10.220;2023-07-02T00:38:07;9.68;;;5.75;;
58468;SDS011;44257;44.804;10.220;2023-07-02T00:40:35;9.65;;;4.97;;
58468;SDS011;44257;44.804;10.220;2023-07-02T00:43:02;7.18;;;5.00;;
58468;SDS011;44257;44.804;10.220;2023-07-02T00:45:28;7.68;;;5.32;;
58468;SDS011;44257;44.804;10.220;2023-07-02T00:47:54;7.68;;;4.68;;
58468;SDS011;44257;44.804;10.220;2023-07-02T00:50:23;6.68;;;4.82;;
58468;SDS011;44257;44.804;10.220;2023-07-02T00:52:51;7.50;;;4.95;;
58468;SDS011;44257;44.804;10.220;2023-07-02T00:55:19;9.15;;;5.65;;
58468;SDS011;44257;44.804;10.220;2023-07-02T00:57:47;7.13;;;4.68;;
58468;SDS011;44257;44.804;10.220;2023-07-02T01:00:13;7.70;;;5.00;;
58468;SDS011;44257;44.804;10.220;2023-07-02T01:02:40;8.98;;;5.18;;
58468;SDS011;44257;44.804;10.220;2023-07-02T01:05:15;7.53;;;5.82;;
58468;SDS011;44257;44.804;10.220;2023-07-02T01:10:07;8.40;;;4.70;;
58468;SDS011;44257;44.804;10.220;2023-07-02T01:12:34;10.32;;;5.43;;
58468;SDS011;44257;44.804;10.220;2023-07-02T01:15:02;6.72;;;4.93;;
58468;SDS011;44257;44.804;10.220;2023-07-02T01:17:30;7.07;;;4.93;;
58468;SDS011;44257;44.804;10.220;2023-07-02T01:20:07;7.38;;;4.60;;
58468;SDS011;44257;44.804;10.220;2023-07-02T01:22:35;8.05;;;5.68;;
58468;SDS011;44257;44.804;10.220;2023-07-02T01:25:01;8.18;;;4.97;;
58468;SDS011;44257;44.804;10.220;2023-07-02T01:27:28;7.88;;;5.90;;
58468;SDS011;44257;44.804;10.220;2023-07-02T01:29:54;8.90;;;5.30;;
58468;SDS011;44257;44.804;10.220;2023-07-02T01:32:21;7.57;;;4.72;;
58468;SDS011;44257;44.804;10.220;2023-07-02T01:34:49;8.88;;;5.78;;
58468;SDS011;44257;44.804;10.220;2023-07-02T01:37:18;6.82;;;4.80;;
58468;SDS011;44257;44.804;10.220;2023-07-02T01:39:45;8.60;;;5.03;;
58468;SDS011;44257;44.804;10.220;2023-07-02T01:42:11;8.75;;;4.55;;
58468;SDS011;44257;44.804;10.220;2023-07-02T01:44:41;7.05;;;5.00;;
58468;SDS011;44257;44.804;10.220;2023-07-02T01:47:08;7.35;;;5.35;;
58468;SDS011;44257;44.804;10.220;2023-07-02T01:49:35;8.05;;;5.32;;
58468;SDS011;44257;44.804;10.220;2023-07-02T01:52:03;8.48;;;5.53;;
58468;SDS011;44257;44.804;10.220;2023-07-02T01:54:30;8.07;;;5.50;;
58468;SDS011;44257;44.804;10.220;2023-07-02T01:56:57;7.22;;;4.65;;
58468;SDS011;44257;44.804;10.220;2023-07-02T01:59:23;7.07;;;5.25;;
58468;SDS011;44257;44.804;10.220;2023-07-02T02:01:49;9.45;;;4.97;;
58468;SDS011;44257;44.804;10.220;2023-07-02T02:04:15;8.05;;;4.70;;
58468;SDS011;44257;44.804;10.220;2023-07-02T02:06:42;6.85;;;4.30;;
58468;SDS011;44257;44.804;10.220;2023-07-02T02:09:08;6.95;;;4.65;;
58468;SDS011;44257;44.804;10.220;2023-07-02T02:11:40;6.88;;;4.88;;
58468;SDS011;44257;44.804;10.220;2023-07-02T02:14:09;6.63;;;4.82;;
58468;SDS011;44257;44.804;10.220;2023-07-02T02:16:34;7.80;;;4.53;;
58468;SDS011;44257;44.804;10.220;2023-07-02T02:19:01;9.43;;;4.95;;
58468;SDS011;44257;44.804;10.220;2023-07-02T02:21:28;7.35;;;4.88;;
58468;SDS011;44257;44.804;10.220;2023-07-02T02:23:54;7.93;;;5.05;;
58468;SDS011;44257;44.804;10.220;2023-07-02T02:26:21;8.90;;;5.32;;
58468;SDS011;44257;44.804;10.220;2023-07-02T02:28:48;6.18;;;4.20;;
58468;SDS011;44257;44.804;10.220;2023-07-02T02:31:15;6.97;;;4.65;;
58468;SDS011;44257;44.804;10.220;2023-07-02T02:33:41;7.18;;;4.35;;
58468;SDS011;44257;44.804;10.220;2023-07-02T02:36:08;7.43;;;4.45;;
58468;SDS011;44257;44.804;10.220;2023-07-02T02:38:34;6.22;;;4.10;;
58468;SDS011;44257;44.804;10.220;2023-07-02T02:41:03;10.60;;;4.97;;
58468;SDS011;44257;44.804;10.220;2023-07-02T02:43:33;6.97;;;4.68;;
58468;SDS011;44257;44.804;10.220;2023-07-02T02:45:59;9.30;;;5.07;;
58468;SDS011;44257;44.804;10.220;2023-07-02T02:48:26;6.25;;;4.65;;
58468;SDS011;44257;44.804;10.220;2023-07-02T02:50:52;7.00;;;4.88;;
58468;SDS011;44257;44.804;10.220;2023-07-02T02:53:17;8.13;;;4.88;;
58468;SDS011;44257;44.804;10.220;2023-07-02T02:55:43;8.68;;;5.05;;
58468;SDS011;44257;44.804;10.220;2023-07-02T02:58:09;7.03;;;4.60;;
58468;SDS011;44257;44.804;10.220;2023-07-02T03:00:35;6.47;;;4.30;;
58468;SDS011;44257;44.804;10.220;2023-07-02T03:03:01;8.65;;;4.15;;
58468;SDS011;44257;44.804;10.220;2023-07-02T03:05:28;10.35;;;5.07;;
58468;SDS011;44257;44.804;10.220;2023-07-02T03:07:54;6.93;;;4.50;;
58468;SDS011;44257;44.804;10.220;2023-07-02T03:10:20;7.07;;;4.78;;
58468;SDS011;44257;44.804;10.220;2023-07-02T03:12:47;7.82;;;4.93;;
58468;SDS011;44257;44.804;10.220;2023-07-02T03:15:13;6.03;;;4.18;;
58468;SDS011;44257;44.804;10.220;2023-07-02T03:17:39;7.97;;;5.00;;
58468;SDS011;44257;44.804;10.220;2023-07-02T03:20:05;8.45;;;4.72;;
58468;SDS011;44257;44.804;10.220;2023-07-02T03:22:33;8.65;;;4.30;;
58468;SDS011;44257;44.804;10.220;2023-07-02T03:25:00;7.40;;;4.55;;
58468;SDS011;44257;44.804;10.220;2023-07-02T03:27:26;7.30;;;4.40;;
58468;SDS011;44257;44.804;10.220;2023-07-02T03:29:51;6.25;;;4.10;;
58468;SDS011;44257;44.804;10.220;2023-07-02T03:32:18;6.25;;;4.70;;
58468;SDS011;44257;44.804;10.220;2023-07-02T03:34:44;7.35;;;4.68;;
58468;SDS011;44257;44.804;10.220;2023-07-02T03:37:09;7.03;;;4.38;;
58468;SDS011;44257;44.804;10.220;2023-07-02T03:39:35;7.18;;;4.63;;
58468;SDS011;44257;44.804;10.220;2023-07-02T03:42:01;11.00;;;4.93;;
58468;SDS011;44257;44.804;10.220;2023-07-02T03:44:27;7.53;;;4.47;;
58468;SDS011;44257;44.804;10.220;2023-07-02T03:46:53;7.32;;;4.28;;
58468;SDS011;44257;44.804;10.220;2023-07-02T03:49:19;8.88;;;4.20;;
58468;SDS011;44257;44.804;10.220;2023-07-02T03:51:45;5.63;;;4.13;;
58468;SDS011;44257;44.804;10.220;2023-07-02T03:54:11;7.00;;;4.32;;
58468;SDS011;44257;44.804;10.220;2023-07-02T03:56:36;8.50;;;4.50;;
58468;SDS011;44257;44.804;10.220;2023-07-02T03:59:02;7.40;;;3.95;;
58468;SDS011;44257;44.804;10.220;2023-07-02T04:01:28;7.00;;;5.00;;
58468;SDS011;44257;44.804;10.220;2023-07-02T04:03:54;6.88;;;4.32;;
58468;SDS011;44257;44.804;10.220;2023-07-02T04:06:20;6.72;;;4.07;;
58468;SDS011;44257;44.804;10.220;2023-07-02T04:08:46;6.05;;;4.20;;
58468;SDS011;44257;44.804;10.220;2023-07-02T04:11:12;5.78;;;3.83;;
58468;SDS011;44257;44.804;10.220;2023-07-02T04:13:38;8.48;;;4.20;;
58468;SDS011;44257;44.804;10.220;2023-07-02T04:16:04;6.25;;;4.22;;
58468;SDS011;44257;44.804;10.220;2023-07-02T04:18:30;6.40;;;4.35;;
58468;SDS011;44257;44.804;10.220;2023-07-02T04:20:57;6.47;;;3.80;;
58468;SDS011;44257;44.804;10.220;2023-07-02T04:23:23;8.57;;;3.78;;
58468;SDS011;44257;44.804;10.220;2023-07-02T04:25:50;6.65;;;4.35;;
58468;SDS011;44257;44.804;10.220;2023-07-02T04:28:16;7.03;;;4.40;;
58468;SDS011;44257;44.804;10.220;2023-07-02T04:30:42;4.88;;;3.45;;
58468;SDS011;44257;44.804;10.220;2023-07-02T04:33:08;9.85;;;4.20;;
58468;SDS011;44257;44.804;10.220;2023-07-02T04:35:34;5.80;;;3.72;;
58468;SDS011;44257;44.804;10.220;2023-07-02T04:38:00;6.93;;;4.32;;
58468;SDS011;44257;44.804;10.220;2023-07-02T04:40:27;6.13;;;3.88;;
58468;SDS011;44257;44.804;10.220;2023-07-02T04:42:53;6.70;;;4.15;;
58468;SDS011;44257;44.804;10.220;2023-07-02T04:45:25;6.53;;;3.53;;
58468;SDS011;44257;44.804;10.220;2023-07-02T04:47:52;8.65;;;4.18;;
58468;SDS011;44257;44.804;10.220;2023-07-02T04:50:18;5.65;;;3.80;;
58468;SDS011;44257;44.804;10.220;2023-07-02T04:52:44;6.15;;;4.22;;
58468;SDS011;44257;44.804;10.220;2023-07-02T04:55:10;6.43;;;4.10;;
58468;SDS011;44257;44.804;10.220;2023-07-02T04:57:36;5.45;;;3.70;;
58468;SDS011;44257;44.804;10.220;2023-07-02T05:00:03;5.45;;;3.85;;
58468;SDS011;44257;44.804;10.220;2023-07-02T05:02:31;6.25;;;3.47;;
58468;SDS011;44257;44.804;10.220;2023-07-02T05:04:57;4.88;;;3.35;;
58468;SDS011;44257;44.804;10.220;2023-07-02T05:07:23;6.28;;;3.22;;
58468;SDS011;44257;44.804;10.220;2023-07-02T05:09:50;6.82;;;2.92;;
58468;SDS011;44257;44.804;10.220;2023-07-02T05:12:18;5.07;;;3.00;;
58468;SDS011;44257;44.804;10.220;2023-07-02T05:14:44;5.55;;;2.63;;
58468;SDS011;44257;44.804;10.220;2023-07-02T05:17:11;5.65;;;2.83;;
58468;SDS011;44257;44.804;10.220;2023-07-02T05:19:39;6.60;;;3.17;;
58468;SDS011;44257;44.804;10.220;2023-07-02T05:22:06;4.25;;;2.70;;
58468;SDS011;44257;44.804;10.220;2023-07-02T05:24:32;7.88;;;4.15;;
58468;SDS011;44257;44.804;10.220;2023-07-02T05:26:58;4.75;;;2.88;;
58468;SDS011;44257;44.804;10.220;2023-07-02T05:29:23;4.65;;;2.88;;
58468;SDS011;44257;44.804;10.220;2023-07-02T05:31:49;6.00;;;3.47;;
58468;SDS011;44257;44.804;10.220;2023-07-02T05:34:15;6.80;;;3.00;;
58468;SDS011;44257;44.804;10.220;2023-07-02T05:36:41;4.95;;;2.92;;
58468;SDS011;44257;44.804;10.220;2023-07-02T05:39:07;4.70;;;3.10;;
58468;SDS011;44257;44.804;10.220;2023-07-02T05:41:32;4.57;;;3.45;;
58468;SDS011;44257;44.804;10.220;2023-07-02T05:43:59;6.97;;;3.40;;
58468;SDS011;44257;44.804;10.220;2023-07-02T05:46:26;5.95;;;2.80;;
58468;SDS011;44257;44.804;10.220;2023-07-02T05:48:52;4.53;;;2.85;;
58468;SDS011;44257;44.804;10.220;2023-07-02T05:51:21;6.25;;;3.05;;
58468;SDS011;44257;44.804;10.220;2023-07-02T05:53:47;6.63;;;3.15;;
58468;SDS011;44257;44.804;10.220;2023-07-02T05:56:13;7.30;;;3.22;;
58468;SDS011;44257;44.804;10.220;2023-07-02T05:58:39;4.00;;;2.80;;
58468;SDS011;44257;44.804;10.220;2023-07-02T06:01:05;4.90;;;3.22;;
58468;SDS011;44257;44.804;10.220;2023-07-02T06:03:31;5.32;;;2.78;;
58468;SDS011;44257;44.804;10.220;2023-07-02T06:05:57;4.32;;;3.05;;
58468;SDS011;44257;44.804;10.220;2023-07-02T06:08:23;6.22;;;3.13;;
58468;SDS011;44257;44.804;10.220;2023-07-02T06:10:49;4.88;;;3.10;;
58468;SDS011;44257;44.804;10.220;2023-07-02T06:13:16;4.05;;;2.92;;
58468;SDS011;44257;44.804;10.220;2023-07-02T06:15:42;5.25;;;2.58;;
58468;SDS011;44257;44.804;10.220;2023-07-02T06:18:08;3.88;;;2.60;;
58468;SDS011;44257;44.804;10.220;2023-07-02T06:20:34;4.28;;;2.95;;
58468;SDS011;44257;44.804;10.220;2023-07-02T06:23:00;6.43;;;2.90;;
58468;SDS011;44257;44.804;10.220;2023-07-02T06:25:25;5.90;;;2.90;;
58468;SDS011;44257;44.804;10.220;2023-07-02T06:27:51;4.35;;;2.67;;
58468;SDS011;44257;44.804;10.220;2023-07-02T06:30:19;4.88;;;2.75;;
58468;SDS011;44257;44.804;10.220;2023-07-02T06:32:48;5.35;;;2.70;;
58468;SDS011;44257;44.804;10.220;2023-07-02T06:35:14;4.47;;;2.22;;
58468;SDS011;44257;44.804;10.220;2023-07-02T06:37:40;5.78;;;2.50;;
58468;SDS011;44257;44.804;10.220;2023-07-02T06:40:06;7.13;;;2.95;;
58468;SDS011;44257;44.804;10.220;2023-07-02T06:42:32;5.72;;;2.55;;
58468;SDS011;44257;44.804;10.220;2023-07-02T06:44:58;6.70;;;3.00;;
58468;SDS011;44257;44.804;10.220;2023-07-02T06:47:24;5.47;;;3.20;;
58468;SDS011;44257;44.804;10.220;2023-07-02T06:49:51;5.10;;;2.85;;
58468;SDS011;44257;44.804;10.220;2023-07-02T06:52:18;6.07;;;2.88;;
58468;SDS011;44257;44.804;10.220;2023-07-02T06:54:44;5.95;;;2.90;;
58468;SDS011;44257;44.804;10.220;2023-07-02T06:57:10;4.90;;;2.97;;
58468;SDS011;44257;44.804;10.220;2023-07-02T06:59:35;4.63;;;3.22;;
58468;SDS011;44257;44.804;10.220;2023-07-02T07:02:02;4.50;;;3.38;;
58468;SDS011;44257;44.804;10.220;2023-07-02T07:04:28;6.68;;;3.03;;
58468;SDS011;44257;44.804;10.220;2023-07-02T07:06:54;4.45;;;2.80;;
58468;SDS011;44257;44.804;10.220;2023-07-02T07:09:21;4.55;;;3.08;;
58468;SDS011;44257;44.804;10.220;2023-07-02T07:11:47;5.68;;;2.70;;
58468;SDS011;44257;44.804;10.220;2023-07-02T07:14:13;4.60;;;2.97;;
58468;SDS011;44257;44.804;10.220;2023-07-02T07:16:39;5.15;;;3.25;;
58468;SDS011;44257;44.804;10.220;2023-07-02T07:19:05;4.68;;;3.17;;
58468;SDS011;44257;44.804;10.220;2023-07-02T07:21:33;4.93;;;3.15;;
58468;SDS011;44257;44.804;10.220;2023-07-02T07:23:59;4.35;;;3.17;;
58468;SDS011;44257;44.804;10.220;2023-07-02T07:26:25;7.13;;;3.70;;
58468;SDS011;44257;44.804;10.220;2023-07-02T07:28:51;5.47;;;3.50;;
58468;SDS011;44257;44.804;10.220;2023-07-02T07:31:20;6.03;;;3.67;;
58468;SDS011;44257;44.804;10.220;2023-07-02T07:33:46;4.70;;;3.60;;
58468;SDS011;44257;44.804;10.220;2023-07-02T07:36:12;5.78;;;3.70;;
58468;SDS011;44257;44.804;10.220;2023-07-02T07:38:37;6.53;;;3.65;;
58468;SDS011;44257;44.804;10.220;2023-07-02T07:41:03;5.55;;;3.63;;
58468;SDS011;44257;44.804;10.220;2023-07-02T07:43:29;5.47;;;3.75;;
58468;SDS011;44257;44.804;10.220;2023-07-02T07:45:55;5.30;;;3.75;;
58468;SDS011;44257;44.804;10.220;2023-07-02T07:48:21;6.15;;;3.60;;
58468;SDS011;44257;44.804;10.220;2023-07-02T07:50:47;5.53;;;3.60;;
58468;SDS011;44257;44.804;10.220;2023-07-02T07:53:12;6.32;;;3.90;;
58468;SDS011;44257;44.804;10.220;2023-07-02T07:55:38;7.75;;;4.07;;
58468;SDS011;44257;44.804;10.220;2023-07-02T07:58:04;5.85;;;4.20;;
58468;SDS011;44257;44.804;10.220;2023-07-02T08:00:30;6.60;;;4.47;;
58468;SDS011;44257;44.804;10.220;2023-07-02T08:02:56;6.95;;;4.00;;
58468;SDS011;44257;44.804;10.220;2023-07-02T08:05:22;5.63;;;4.15;;
58468;SDS011;44257;44.804;10.220;2023-07-02T08:07:48;5.93;;;3.85;;
58468;SDS011;44257;44.804;10.220;2023-07-02T08:10:14;7.25;;;4.38;;
58468;SDS011;44257;44.804;10.220;2023-07-02T08:12:40;6.75;;;4.35;;
58468;SDS011;44257;44.804;10.220;2023-07-02T08:15:06;6.97;;;4.85;;
58468;SDS011;44257;44.804;10.220;2023-07-02T08:17:32;5.60;;;4.32;;
58468;SDS011;44257;44.804;10.220;2023-07-02T08:19:59;6.43;;;5.07;;
58468;SDS011;44257;44.804;10.220;2023-07-02T08:22:25;8.60;;;5.82;;
58468;SDS011;44257;44.804;10.220;2023-07-02T08:24:51;7.53;;;5.60;;
58468;SDS011;44257;44.804;10.220;2023-07-02T08:27:17;9.00;;;6.97;;
58468;SDS011;44257;44.804;10.220;2023-07-02T08:29:47;7.45;;;5.97;;
58468;SDS011;44257;44.804;10.220;2023-07-02T08:32:14;8.52;;;7.10;;
58468;SDS011;44257;44.804;10.220;2023-07-02T08:34:40;10.98;;;7.93;;
58468;SDS011;44257;44.804;10.220;2023-07-02T08:37:06;9.05;;;6.93;;
58468;SDS011;44257;44.804;10.220;2023-07-02T08:39:32;9.07;;;7.05;;
58468;SDS011;44257;44.804;10.220;2023-07-02T08:41:58;10.52;;;7.50;;
58468;SDS011;44257;44.804;10.220;2023-07-02T08:44:24;10.25;;;7.53;;
58468;SDS011;44257;44.804;10.220;2023-07-02T08:46:51;9.10;;;7.13;;
58468;SDS011;44257;44.804;10.220;2023-07-02T08:49:21;10.23;;;7.72;;
58468;SDS011;44257;44.804;10.220;2023-07-02T08:51:47;8.93;;;6.95;;
58468;SDS011;44257;44.804;10.220;2023-07-02T08:54:13;10.18;;;6.97;;
58468;SDS011;44257;44.804;10.220;2023-07-02T08:56:40;7.53;;;6.60;;
58468;SDS011;44257;44.804;10.220;2023-07-02T08:59:09;10.25;;;8.23;;
58468;SDS011;44257;44.804;10.220;2023-07-02T09:01:48;13.55;;;8.45;;
58468;SDS011;44257;44.804;10.220;2023-07-02T09:04:19;10.75;;;8.18;;
58468;SDS011;44257;44.804;10.220;2023-07-02T09:06:48;10.18;;;8.38;;
58468;SDS011;44257;44.804;10.220;2023-07-02T09:09:16;12.73;;;8.85;;
58468;SDS011;44257;44.804;10.220;2023-07-02T09:11:49;9.05;;;7.03;;
58468;SDS011;44257;44.804;10.220;2023-07-02T09:17:07;11.98;;;8.15;;
58468;SDS011;44257;44.804;10.220;2023-07-02T09:19:34;10.05;;;7.82;;
58468;SDS011;44257;44.804;10.220;2023-07-02T09:22:01;11.95;;;8.65;;
58468;SDS011;44257;44.804;10.220;2023-07-02T09:24:28;12.40;;;10.50;;
58468;SDS011;44257;44.804;10.220;2023-07-02T09:26:59;13.57;;;10.30;;
58468;SDS011;44257;44.804;10.220;2023-07-02T09:29:27;12.18;;;10.77;;
58468;SDS011;44257;44.804;10.220;2023-07-02T09:31:55;11.80;;;10.02;;
58468;SDS011;44257;44.804;10.220;2023-07-02T09:34:29;14.00;;;9.55;;
58468;SDS011;44257;44.804;10.220;2023-07-02T09:36:56;12.35;;;9.57;;
58468;SDS011;44257;44.804;10.220;2023-07-02T09:39:27;12.77;;;9.98;;
58468;SDS011;44257;44.804;10.220;2023-07-02T09:41:58;12.18;;;9.15;;
58468;SDS011;44257;44.804;10.220;2023-07-02T09:44:28;10.82;;;8.30;;
58468;SDS011;44257;44.804;10.220;2023-07-02T09:47:05;11.70;;;9.77;;
58468;SDS011;44257;44.804;10.220;2023-07-02T09:49:43;12.43;;;10.38;;
58468;SDS011;44257;44.804;10.220;2023-07-02T09:52:14;13.07;;;9.77;;
58468;SDS011;44257;44.804;10.220;2023-07-02T09:54:42;12.65;;;10.15;;
58468;SDS011;44257;44.804;10.220;2023-07-02T09:57:08;15.90;;;10.98;;
58468;SDS011;44257;44.804;10.220;2023-07-02T09:59:34;11.98;;;10.05;;
58468;SDS011;44257;44.804;10.220;2023-07-02T10:02:00;10.30;;;7.80;;
58468;SDS011;44257;44.804;10.220;2023-07-02T10:04:26;10.68;;;9.50;;
58468;SDS011;44257;44.804;10.220;2023-07-02T10:06:54;9.68;;;7.43;;
58468;SDS011;44257;44.804;10.220;2023-07-02T10:09:25;13.85;;;9.18;;
58468;SDS011;44257;44.804;10.220;2023-07-02T10:12:16;8.15;;;7.32;;
58468;SDS011;44257;44.804;10.220;2023-07-02T10:14:43;13.13;;;8.45;;
58468;SDS011;44257;44.804;10.220;2023-07-02T10:17:10;12.57;;;8.63;;
58468;SDS011;44257;44.804;10.220;2023-07-02T10:19:51;9.38;;;8.07;;
58468;SDS011;44257;44.804;10.220;2023-07-02T10:22:18;9.43;;;7.90;;
58468;SDS011;44257;44.804;10.220;2023-07-02T10:24:57;8.07;;;7.10;;
58468;SDS011;44257;44.804;10.220;2023-07-02T10:30:01;10.02;;;8.70;;
58468;SDS011;44257;44.804;10.220;2023-07-02T10:32:29;10.27;;;8.77;;
58468;SDS011;44257;44.804;10.220;2023-07-02T10:34:55;8.43;;;6.40;;
58468;SDS011;44257;44.804;10.220;2023-07-02T10:37:21;11.00;;;7.30;;
58468;SDS011;44257;44.804;10.220;2023-07-02T10:39:47;10.02;;;6.63;;
58468;SDS011;44257;44.804;10.220;2023-07-02T10:42:13;8.02;;;7.13;;
58468;SDS011;44257;44.804;10.220;2023-07-02T10:44:49;6.40;;;5.05;;
58468;SDS011;44257;44.804;10.220;2023-07-02T10:47:17;6.55;;;5.75;;
58468;SDS011;44257;44.804;10.220;2023-07-02T10:49:45;6.28;;;4.90;;
58468;SDS011;44257;44.804;10.220;2023-07-02T10:52:11;9.18;;;6.72;;
58468;SDS011;44257;44.804;10.220;2023-07-02T10:57:12;6.93;;;5.93;;
58468;SDS011;44257;44.804;10.220;2023-07-02T10:59:39;8.50;;;6.55;;
58468;SDS011;44257;44.804;10.220;2023-07-02T11:02:05;6.88;;;5.90;;
58468;SDS011;44257;44.804;10.220;2023-07-02T11:04:33;6.60;;;5.13;;
58468;SDS011;44257;44.804;10.220;2023-07-02T11:06:59;6.72;;;5.05;;
58468;SDS011;44257;44.804;10.220;2023-07-02T11:09:26;7.07;;;5.03;;
58468;SDS011;44257;44.804;10.220;2023-07-02T11:11:59;6.75;;;5.38;;
58468;SDS011;44257;44.804;10.220;2023-07-02T11:14:28;6.20;;;4.38;;
58468;SDS011;44257;44.804;10.220;2023-07-02T11:17:06;6.00;;;4.93;;
58468;SDS011;44257;44.804;10.220;2023-07-02T11:19:32;5.88;;;3.95;;
58468;SDS011;44257;44.804;10.220;2023-07-02T11:21:59;5.40;;;4.05;;
58468;SDS011;44257;44.804;10.220;2023-07-02T11:24:26;6.28;;;4.97;;
58468;SDS011;44257;44.804;10.220;2023-07-02T11:26:57;6.45;;;4.45;;
58468;SDS011;44257;44.804;10.220;2023-07-02T11:29:24;6.63;;;4.25;;
58468;SDS011;44257;44.804;10.220;2023-07-02T11:31:50;5.20;;;4.05;;
58468;SDS011;44257;44.804;10.220;2023-07-02T11:34:17;5.35;;;4.18;;
58468;SDS011;44257;44.804;10.220;2023-07-02T11:36:44;7.32;;;4.15;;
58468;SDS011;44257;44.804;10.220;2023-07-02T11:39:10;5.93;;;4.43;;
58468;SDS011;44257;44.804;10.220;2023-07-02T11:41:40;7.30;;;4.55;;
58468;SDS011;44257;44.804;10.220;2023-07-02T11:44:08;5.47;;;4.43;;
58468;SDS011;44257;44.804;10.220;2023-07-02T11:46:34;5.47;;;4.20;;
58468;SDS011;44257;44.804;10.220;2023-07-02T11:49:00;7.47;;;4.78;;
58468;SDS011;44257;44.804;10.220;2023-07-02T11:51:27;5.57;;;4.25;;
58468;SDS011;44257;44.804;10.220;2023-07-02T11:53:53;5.07;;;3.80;;
58468;SDS011;44257;44.804;10.220;2023-07-02T11:56:19;6.45;;;4.57;;
58468;SDS011;44257;44.804;10.220;2023-07-02T11:58:45;5.22;;;4.22;;
58468;SDS011;44257;44.804;10.220;2023-07-02T12:01:11;4.97;;;4.18;;
58468;SDS011;44257;44.804;10.220;2023-07-02T12:03:36;5.57;;;4.07;;
58468;SDS011;44257;44.804;10.220;2023-07-02T12:06:02;4.93;;;3.92;;
58468;SDS011;44257;44.804;10.220;2023-07-02T12:08:28;5.65;;;4.53;;
58468;SDS011;44257;44.804;10.220;2023-07-02T12:10:54;7.90;;;4.53;;
58468;SDS011;44257;44.804;10.220;2023-07-02T12:13:20;6.10;;;4.70;;
58468;SDS011;44257;44.804;10.220;2023-07-02T12:15:47;5.75;;;4.13;;
58468;SDS011;44257;44.804;10.220;2023-07-02T12:18:13;5.38;;;4.07;;
58468;SDS011;44257;44.804;10.220;2023-07-02T12:20:39;5.05;;;4.40;;
58468;SDS011;44257;44.804;10.220;2023-07-02T12:23:05;7.15;;;4.47;;
58468;SDS011;44257;44.804;10.220;2023-07-02T12:25:32;5.82;;;4.32;;
58468;SDS011;44257;44.804;10.220;2023-07-02T12:27:58;5.22;;;4.03;;
58468;SDS011;44257;44.804;10.220;2023-07-02T12:30:24;5.10;;;3.90;;
58468;SDS011;44257;44.804;10.220;2023-07-02T12:32:49;5.63;;;3.92;;
58468;SDS011;44257;44.804;10.220;2023-07-02T12:35:15;6.15;;;4.03;;
58468;SDS011;44257;44.804;10.220;2023-07-02T12:37:48;7.47;;;4.38;;
58468;SDS011;44257;44.804;10.220;2023-07-02T12:40:16;6.32;;;4.10;;
58468;SDS011;44257;44.804;10.220;2023-07-02T12:42:43;5.53;;;4.15;;
58468;SDS011;44257;44.804;10.220;2023-07-02T12:45:10;5.18;;;3.90;;
58468;SDS011;44257;44.804;10.220;2023-07-02T12:47:40;4.75;;;3.92;;
58468;SDS011;44257;44.804;10.220;2023-07-02T12:50:07;4.55;;;3.72;;
58468;SDS011;44257;44.804;10.220;2023-07-02T12:52:33;4.45;;;3.97;;
58468;SDS011;44257;44.804;10.220;2023-07-02T12:54:59;5.35;;;4.15;;
58468;SDS011;44257;44.804;10.220;2023-07-02T12:57:26;4.72;;;3.78;;
58468;SDS011;44257;44.804;10.220;2023-07-02T12:59:53;6.72;;;4.03;;
58468;SDS011;44257;44.804;10.220;2023-07-02T13:02:20;6.30;;;3.80;;
58468;SDS011;44257;44.804;10.220;2023-07-02T13:04:46;5.13;;;3.67;;
58468;SDS011;44257;44.804;10.220;2023-07-02T13:07:12;4.85;;;3.55;;
58468;SDS011;44257;44.804;10.220;2023-07-02T13:09:38;4.60;;;3.90;;
58468;SDS011;44257;44.804;10.220;2023-07-02T13:12:04;4.75;;;3.72;;
58468;SDS011;44257;44.804;10.220;2023-07-02T13:14:31;5.18;;;3.95;;
58468;SDS011;44257;44.804;10.220;2023-07-02T13:16:57;4.80;;;3.70;;
58468;SDS011;44257;44.804;10.220;2023-07-02T13:19:25;5.00;;;3.85;;
58468;SDS011;44257;44.804;10.220;2023-07-02T13:21:51;7.90;;;4.13;;
58468;SDS011;44257;44.804;10.220;2023-07-02T13:24:17;5.93;;;4.43;;
58468;SDS011;44257;44.804;10.220;2023-07-02T13:26:42;5.63;;;3.78;;
58468;SDS011;44257;44.804;10.220;2023-07-02T13:29:09;5.65;;;3.90;;
58468;SDS011;44257;44.804;10.220;2023-07-02T13:31:35;4.68;;;3.92;;
58468;SDS011;44257;44.804;10.220;2023-07-02T13:34:01;5.95;;;4.13;;
58468;SDS011;44257;44.804;10.220;2023-07-02T13:36:27;7.40;;;4.25;;
58468;SDS011;44257;44.804;10.220;2023-07-02T13:38:55;5.03;;;3.80;;
58468;SDS011;44257;44.804;10.220;2023-07-02T13:41:21;6.20;;;4.22;;
58468;SDS011;44257;44.804;10.220;2023-07-02T13:43:48;5.68;;;4.22;;
58468;SDS011;44257;44.804;10.220;2023-07-02T13:46:14;4.50;;;4.05;;
58468;SDS011;44257;44.804;10.220;2023-07-02T13:48:40;5.55;;;4.43;;
58468;SDS011;44257;44.804;10.220;2023-07-02T13:51:06;4.90;;;3.88;;
58468;SDS011;44257;44.804;10.220;2023-07-02T13:53:33;6.45;;;3.97;;
58468;SDS011;44257;44.804;10.220;2023-07-02T13:55:59;5.47;;;4.20;;
58468;SDS011;44257;44.804;10.220;2023-07-02T13:58:25;5.75;;;4.18;;
58468;SDS011;44257;44.804;10.220;2023-07-02T14:00:51;4.38;;;3.45;;
58468;SDS011;44257;44.804;10.220;2023-07-02T14:03:17;5.25;;;4.10;;
58468;SDS011;44257;44.804;10.220;2023-07-02T14:05:43;6.70;;;4.38;;
58468;SDS011;44257;44.804;10.220;2023-07-02T14:08:09;5.45;;;4.07;;
58468;SDS011;44257;44.804;10.220;2023-07-02T14:10:35;5.30;;;3.92;;
58468;SDS011;44257;44.804;10.220;2023-07-02T14:13:01;4.47;;;3.67;;
58468;SDS011;44257;44.804;10.220;2023-07-02T14:15:26;4.72;;;3.80;;
58468;SDS011;44257;44.804;10.220;2023-07-02T14:17:52;5.82;;;4.10;;
58468;SDS011;44257;44.804;10.220;2023-07-02T14:20:20;5.57;;;4.40;;
58468;SDS011;44257;44.804;10.220;2023-07-02T14:22:46;6.75;;;4.05;;
58468;SDS011;44257;44.804;10.220;2023-07-02T14:25:12;5.45;;;4.30;;
58468;SDS011;44257;44.804;10.220;2023-07-02T14:27:38;5.00;;;4.28;;
58468;SDS011;44257;44.804;10.220;2023-07-02T14:30:04;4.78;;;3.88;;
58468;SDS011;44257;44.804;10.220;2023-07-02T14:32:33;6.70;;;4.60;;
58468;SDS011;44257;44.804;10.220;2023-07-02T14:35:04;5.28;;;4.03;;
58468;SDS011;44257;44.804;10.220;2023-07-02T14:37:30;6.22;;;4.35;;
58468;SDS011;44257;44.804;10.220;2023-07-02T14:39:56;5.30;;;4.05;;
58468;SDS011;44257;44.804;10.220;2023-07-02T14:42:22;5.63;;;4.05;;